Time;durP1;ratioP1;P1;durP2;ratioP2;P2;SDS_P1;SDS_P2;PMS_P1;PMS_P2;Temp;Humidity;BMP_temperature;BMP_pressure;BME280_temperature;BME280_humidity;BME280_pressure;Samples;Min_cycle;Max_cycle;Signal;HPM_P1;HPM_P2
2022/10/31 00:01:09;;;;;;;;;;;13.10;83.40;;;;;;5040047;28;19970;-81
2022/10/31 00:03:35;;;;;;;;;;;13.10;83.40;;;;;;5043083;28;19935;-82
2022/10/31 00:06:01;;;;;;;;;;;13.10;83.40;;;;;;5038942;28;19938;-82
2022/10/31 00:08:26;;;;;;;;;;;13.10;83.40;;;;;;5029242;28;20597;-82
2022/10/31 00:10:52;;;;;;;;;;;13.10;83.40;;;;;;5042306;28;19924;-82
2022/10/31 00:13:17;;;;;;;;;;;13.10;83.50;;;;;;5033147;28;20368;-82
2022/10/31 00:15:43;;;;;;;;;;;13.10;83.40;;;;;;5038058;28;19916;-82
2022/10/31 00:18:08;;;;;;;;;;;13.10;83.40;;;;;;5055592;28;20610;-81
2022/10/31 00:20:34;;;;;;;;;;;13.10;83.40;;;;;;5033260;28;20582;-82
2022/10/31 00:23:00;;;;;;;;;;;13.10;83.40;;;;;;5028329;28;20729;-82
2022/10/31 00:25:25;;;;;;;;;;;13.10;83.40;;;;;;5042235;28;19928;-82
2022/10/31 00:27:51;;;;;;;;;;;13.00;83.40;;;;;;5045492;28;20517;-82
2022/10/31 00:30:16;;;;;;;;;;;13.10;83.40;;;;;;5060557;28;19917;-82
2022/10/31 00:32:42;;;;;;;;;;;13.00;83.40;;;;;;5042929;28;19916;-82
2022/10/31 00:35:07;;;;;;;;;;;13.00;83.30;;;;;;5044092;28;19964;-82
2022/10/31 00:37:33;;;;;;;;;;;13.00;83.40;;;;;;5028080;28;19913;-82
2022/10/31 00:39:58;;;;;;;;;;;13.00;83.40;;;;;;5027638;28;19924;-82
2022/10/31 00:42:24;;;;;;;;;;;13.00;83.50;;;;;;5039932;28;19966;-82
2022/10/31 00:44:49;;;;;;;;;;;12.90;83.40;;;;;;5037248;28;19928;-82
2022/10/31 00:47:15;;;;;;;;;;;12.90;83.40;;;;;;5046276;28;19970;-82
2022/10/31 00:49:40;;;;;;;;;;;12.90;83.40;;;;;;5046568;28;20003;-82
2022/10/31 00:52:06;;;;;;;;;;;12.80;83.50;;;;;;5044448;28;19973;-82
2022/10/31 00:54:31;;;;;;;;;;;12.80;83.50;;;;;;5043688;28;19924;-82
2022/10/31 00:56:57;;;;;;;;;;;12.80;84.30;;;;;;5046897;28;20289;-82
2022/10/31 00:59:22;;;;;;;;;;;12.80;83.60;;;;;;5046806;28;19987;-82
2022/10/31 01:01:48;;;;;;;;;;;12.80;83.60;;;;;;5061336;28;19999;-82
2022/10/31 01:04:13;;;;;;;;;;;12.80;84.40;;;;;;5045883;28;19928;-82
2022/10/31 01:06:39;;;;;;;;;;;12.80;83.60;;;;;;5048869;28;19917;-82
2022/10/31 01:09:04;;;;;;;;;;;12.80;83.60;;;;;;5044739;28;19948;-82
2022/10/31 01:11:30;;;;;;;;;;;12.70;83.50;;;;;;5059293;28;19917;-82
2022/10/31 01:13:55;;;;;;;;;;;12.80;83.60;;;;;;5039559;28;19924;-82
2022/10/31 01:16:22;;;;;;;;;;;12.80;83.60;;;;;;5041222;28;19924;-82
2022/10/31 01:18:47;;;;;;;;;;;12.70;83.60;;;;;;5028507;28;19959;-82
2022/10/31 01:21:16;;;;;;;;;;;12.70;83.60;;;;;;5040737;28;19920;-82
2022/10/31 01:23:42;;;;;;;;;;;12.70;83.60;;;;;;5026126;28;19913;-82
2022/10/31 01:26:08;;;;;;;;;;;12.70;83.60;;;;;;5028198;28;19961;-82
2022/10/31 01:28:35;;;;;;;;;;;12.70;83.60;;;;;;5044116;28;19928;-82
2022/10/31 01:31:01;;;;;;;;;;;12.70;83.70;;;;;;5032240;28;19917;-82
2022/10/31 01:33:27;;;;;;;;;;;12.70;83.60;;;;;;5035019;28;19917;-82
2022/10/31 01:35:52;;;;;;;;;;;12.60;83.60;;;;;;5053863;28;20516;-81
2022/10/31 01:38:18;;;;;;;;;;;12.60;83.60;;;;;;5060193;28;19967;-82
2022/10/31 01:40:43;;;;;;;;;;;12.60;83.70;;;;;;5043252;28;19917;-82
2022/10/31 01:43:12;;;;;;;;;;;12.60;83.70;;;;;;5043121;28;19931;-82
2022/10/31 01:45:38;;;;;;;;;;;12.60;83.70;;;;;;5046127;28;20309;-82
2022/10/31 01:48:03;;;;;;;;;;;12.60;83.70;;;;;;5027678;28;19917;-82
2022/10/31 01:50:33;;;;;;;;;;;12.60;83.70;;;;;;5043741;28;19924;-82
2022/10/31 01:52:59;;;;;;;;;;;12.60;83.70;;;;;;5044211;28;19916;-82
2022/10/31 01:55:25;;;;;;;;;;;12.60;83.70;;;;;;5059162;28;19922;-82
2022/10/31 01:57:51;;;;;;;;;;;12.50;83.60;;;;;;5049272;28;19925;-82
2022/10/31 02:00:17;;;;;;;;;;;12.50;83.60;;;;;;5044421;28;20087;-82
2022/10/31 02:02:42;;;;;;;;;;;12.50;83.60;;;;;;5058629;28;20410;-82
2022/10/31 02:05:09;;;;;;;;;;;12.50;83.70;;;;;;5039871;28;19920;-81
2022/10/31 02:08:01;;;;;;;;;;;12.50;83.70;;;;;;5027803;28;19967;-82
2022/10/31 02:10:26;;;;;;;;;;;12.50;83.80;;;;;;5063191;28;19912;-83
2022/10/31 02:12:53;;;;;;;;;;;12.50;83.80;;;;;;5036062;28;20338;-82
2022/10/31 02:15:18;;;;;;;;;;;12.50;83.80;;;;;;5037415;28;19917;-82
2022/10/31 02:17:44;;;;;;;;;;;12.50;83.80;;;;;;5054522;28;19916;-82
2022/10/31 02:20:11;;;;;;;;;;;12.40;83.70;;;;;;5060624;28;20452;-82
2022/10/31 02:22:55;;;;;;;;;;;12.40;83.70;;;;;;5036089;28;19912;-82
2022/10/31 02:25:21;;;;;;;;;;;12.40;83.80;;;;;;5041956;28;20427;-82
2022/10/31 02:28:00;;;;;;;;;;;12.40;83.70;;;;;;5060049;28;19970;-82
2022/10/31 02:30:46;;;;;;;;;;;12.40;83.80;;;;;;5057534;28;19921;-82
2022/10/31 02:33:17;;;;;;;;;;;12.40;83.80;;;;;;5003410;28;19917;-82
2022/10/31 02:35:52;;;;;;;;;;;12.40;83.80;;;;;;5039759;28;19948;-81
2022/10/31 02:38:36;;;;;;;;;;;12.40;83.80;;;;;;5043646;28;20373;-82
2022/10/31 02:41:01;;;;;;;;;;;12.40;83.80;;;;;;5060108;28;19920;-82
2022/10/31 02:43:32;;;;;;;;;;;12.30;83.80;;;;;;5039226;28;20399;-82
2022/10/31 02:46:13;;;;;;;;;;;12.30;83.80;;;;;;5048839;28;19924;-82
2022/10/31 02:48:38;;;;;;;;;;;12.30;83.80;;;;;;5058722;28;19912;-82
2022/10/31 02:51:04;;;;;;;;;;;12.30;83.80;;;;;;5038068;28;20385;-82
2022/10/31 02:53:36;;;;;;;;;;;12.30;83.80;;;;;;5044797;28;19919;-82
2022/10/31 02:56:03;;;;;;;;;;;12.30;83.80;;;;;;5029903;28;19913;-82
2022/10/31 02:58:30;;;;;;;;;;;12.30;83.90;;;;;;5029942;28;19932;-82
2022/10/31 03:01:15;;;;;;;;;;;12.30;83.90;;;;;;5016379;28;19928;-82
2022/10/31 03:03:49;;;;;;;;;;;12.30;83.90;;;;;;5044854;28;19917;-82
2022/10/31 03:06:20;;;;;;;;;;;12.30;83.90;;;;;;5044125;28;19924;-82
2022/10/31 03:09:01;;;;;;;;;;;12.30;83.90;;;;;;5023997;28;20010;-81
2022/10/31 03:11:29;;;;;;;;;;;12.30;84.00;;;;;;5064623;28;19916;-81
2022/10/31 03:13:54;;;;;;;;;;;12.30;83.90;;;;;;5028451;28;20013;-82
2022/10/31 03:16:31;;;;;;;;;;;12.30;83.90;;;;;;5047514;28;19956;-82
2022/10/31 03:19:01;;;;;;;;;;;12.20;83.90;;;;;;5047007;28;19939;-82
2022/10/31 03:21:28;;;;;;;;;;;12.20;83.90;;;;;;5048042;28;19940;-82
2022/10/31 03:23:54;;;;;;;;;;;12.20;83.90;;;;;;5043315;28;19916;-82
2022/10/31 03:26:19;;;;;;;;;;;12.20;83.90;;;;;;5076742;28;20018;-82
2022/10/31 03:29:04;;;;;;;;;;;12.20;84.00;;;;;;5057302;28;19931;-82
2022/10/31 03:31:32;;;;;;;;;;;12.20;84.00;;;;;;5047606;28;19928;-82
2022/10/31 03:33:58;;;;;;;;;;;12.20;84.00;;;;;;5062697;28;19940;-81
2022/10/31 03:36:23;;;;;;;;;;;12.10;83.90;;;;;;5062135;28;19912;-82
2022/10/31 03:38:49;;;;;;;;;;;12.10;83.90;;;;;;5049088;28;19938;-82
2022/10/31 03:41:16;;;;;;;;;;;12.10;84.00;;;;;;5043558;28;19912;-82
2022/10/31 03:43:42;;;;;;;;;;;12.10;84.00;;;;;;5027029;28;19916;-81
2022/10/31 03:46:08;;;;;;;;;;;12.10;84.00;;;;;;5046379;28;19917;-82
2022/10/31 03:48:33;;;;;;;;;;;12.10;84.00;;;;;;5041020;28;19927;-82
2022/10/31 03:51:02;;;;;;;;;;;12.10;84.00;;;;;;5055942;28;19920;-81
2022/10/31 03:53:27;;;;;;;;;;;12.10;84.10;;;;;;5040808;28;19921;-82
2022/10/31 03:55:58;;;;;;;;;;;12.00;84.00;;;;;;5062790;28;19919;-82
2022/10/31 03:58:25;;;;;;;;;;;12.00;84.00;;;;;;5043473;28;19913;-82
2022/10/31 04:00:51;;;;;;;;;;;12.00;84.00;;;;;;5040906;28;19942;-82
2022/10/31 04:03:17;;;;;;;;;;;12.00;84.00;;;;;;5058905;28;19916;-82
2022/10/31 04:05:43;;;;;;;;;;;12.00;84.10;;;;;;5042293;28;20374;-82
2022/10/31 04:08:09;;;;;;;;;;;11.90;84.00;;;;;;5043162;28;19919;-82
2022/10/31 04:10:35;;;;;;;;;;;11.90;84.10;;;;;;5043658;28;19919;-82
2022/10/31 04:13:02;;;;;;;;;;;11.90;84.10;;;;;;5024403;28;20023;-82
2022/10/31 04:15:27;;;;;;;;;;;12.00;84.20;;;;;;5057436;28;19916;-82
2022/10/31 04:17:53;;;;;;;;;;;11.90;84.10;;;;;;5037293;28;19982;-82
2022/10/31 04:20:18;;;;;;;;;;;11.90;84.10;;;;;;5026973;28;20282;-81
2022/10/31 04:22:44;;;;;;;;;;;11.90;84.10;;;;;;5028039;28;19956;-82
2022/10/31 04:25:09;;;;;;;;;;;11.90;84.10;;;;;;5059142;28;20528;-81
2022/10/31 04:27:35;;;;;;;;;;;11.80;84.10;;;;;;5054305;28;19921;-82
2022/10/31 04:30:00;;;;;;;;;;;11.80;84.10;;;;;;5059507;28;19961;-82
2022/10/31 04:32:27;;;;;;;;;;;11.80;84.10;;;;;;5052735;28;19920;-82
2022/10/31 04:34:53;;;;;;;;;;;11.80;84.10;;;;;;5056158;28;19917;-83
2022/10/31 04:37:18;;;;;;;;;;;11.80;84.20;;;;;;5048710;28;19941;-82
2022/10/31 04:39:44;;;;;;;;;;;11.70;84.10;;;;;;5026130;28;20377;-82
2022/10/31 04:42:09;;;;;;;;;;;11.70;84.20;;;;;;5056472;28;19912;-81
2022/10/31 04:44:35;;;;;;;;;;;11.70;84.20;;;;;;5026527;28;19931;-82
2022/10/31 04:47:00;;;;;;;;;;;11.60;84.20;;;;;;5056303;28;20337;-82
2022/10/31 04:49:25;;;;;;;;;;;11.60;84.20;;;;;;5044037;28;19912;-83
2022/10/31 04:51:51;;;;;;;;;;;11.60;84.20;;;;;;5045447;28;19917;-82
2022/10/31 04:54:17;;;;;;;;;;;11.60;84.20;;;;;;5053851;28;20007;-80
2022/10/31 04:56:42;;;;;;;;;;;11.60;84.20;;;;;;5059131;28;19916;-82
2022/10/31 04:59:07;;;;;;;;;;;11.60;84.30;;;;;;5053512;28;19913;-82
2022/10/31 05:01:33;;;;;;;;;;;11.60;84.30;;;;;;5044293;28;19917;-81
2022/10/31 05:03:58;;;;;;;;;;;11.60;84.30;;;;;;5062283;28;19960;-81
2022/10/31 05:06:24;;;;;;;;;;;11.50;84.30;;;;;;5057521;28;20003;-81
2022/10/31 05:08:49;;;;;;;;;;;11.50;84.30;;;;;;5059878;28;19920;-82
2022/10/31 05:11:15;;;;;;;;;;;11.50;84.30;;;;;;5047023;28;19920;-81
2022/10/31 05:13:40;;;;;;;;;;;11.50;84.30;;;;;;5034037;28;20297;-81
2022/10/31 05:16:06;;;;;;;;;;;11.50;84.30;;;;;;5045793;28;19916;-80
2022/10/31 05:18:32;;;;;;;;;;;11.40;84.30;;;;;;5031028;28;20717;-83
2022/10/31 05:20:57;;;;;;;;;;;11.40;84.40;;;;;;5044546;28;19999;-82
2022/10/31 05:23:23;;;;;;;;;;;11.40;84.40;;;;;;5061569;28;20314;-81
2022/10/31 05:25:48;;;;;;;;;;;11.40;84.40;;;;;;5026939;28;19924;-81
2022/10/31 05:28:14;;;;;;;;;;;11.40;84.40;;;;;;5042988;28;19990;-82
2022/10/31 05:30:39;;;;;;;;;;;11.40;84.50;;;;;;5058369;28;20349;-81
2022/10/31 05:33:05;;;;;;;;;;;11.40;84.50;;;;;;5046181;28;19971;-82
2022/10/31 05:35:31;;;;;;;;;;;11.40;84.50;;;;;;5058770;28;19920;-81
2022/10/31 05:37:57;;;;;;;;;;;11.30;84.40;;;;;;5045389;28;19916;-83
2022/10/31 05:40:23;;;;;;;;;;;11.30;84.40;;;;;;5051483;28;20515;-81
2022/10/31 05:42:50;;;;;;;;;;;11.30;84.40;;;;;;5052991;28;19928;-82
2022/10/31 05:45:16;;;;;;;;;;;11.30;84.40;;;;;;5046127;28;19925;-82
2022/10/31 05:47:41;;;;;;;;;;;11.30;84.40;;;;;;5038479;28;19947;-79
2022/10/31 05:50:07;;;;;;;;;;;11.30;84.40;;;;;;5058828;28;19913;-80
2022/10/31 05:52:32;;;;;;;;;;;11.30;84.40;;;;;;5035077;28;19966;-80
2022/10/31 05:54:58;;;;;;;;;;;11.30;84.40;;;;;;5057907;28;20005;-81
2022/10/31 05:57:23;;;;;;;;;;;11.20;84.40;;;;;;5058338;28;20405;-83
2022/10/31 05:59:52;;;;;;;;;;;11.20;84.40;;;;;;5043157;28;19952;-81
2022/10/31 06:02:18;;;;;;;;;;;11.20;84.50;;;;;;5040098;28;20377;-81
2022/10/31 06:04:44;;;;;;;;;;;11.20;84.50;;;;;;5055643;28;19944;-80
2022/10/31 06:07:09;;;;;;;;;;;11.20;84.50;;;;;;5057598;28;20016;-81
2022/10/31 06:09:35;;;;;;;;;;;11.20;84.50;;;;;;5054562;28;19919;-81
2022/10/31 06:12:00;;;;;;;;;;;11.20;84.50;;;;;;5064557;28;19920;-81
2022/10/31 06:14:25;;;;;;;;;;;11.20;84.50;;;;;;5039203;28;19927;-81
2022/10/31 06:16:51;;;;;;;;;;;11.20;84.60;;;;;;5041455;28;20500;-81
2022/10/31 06:19:16;;;;;;;;;;;11.20;84.50;;;;;;5038467;28;19936;-81
2022/10/31 06:21:42;;;;;;;;;;;11.20;84.60;;;;;;5050807;28;19916;-80
2022/10/31 06:24:07;;;;;;;;;;;11.20;84.60;;;;;;5040360;28;20015;-81
2022/10/31 06:26:33;;;;;;;;;;;11.20;84.60;;;;;;5056861;28;20389;-81
2022/10/31 06:28:58;;;;;;;;;;;11.20;84.60;;;;;;5037779;28;19919;-81
2022/10/31 06:31:24;;;;;;;;;;;11.20;84.60;;;;;;5041788;28;19943;-81
2022/10/31 06:33:49;;;;;;;;;;;11.20;84.60;;;;;;5057661;28;19975;-81
2022/10/31 06:36:15;;;;;;;;;;;11.20;84.60;;;;;;5041705;28;19923;-80
2022/10/31 06:38:40;;;;;;;;;;;11.20;84.60;;;;;;5036866;28;19947;-81
2022/10/31 06:41:06;;;;;;;;;;;11.20;84.60;;;;;;5043821;28;20406;-81
2022/10/31 06:43:31;;;;;;;;;;;11.20;84.60;;;;;;5057017;28;20451;-81
2022/10/31 06:45:57;;;;;;;;;;;11.20;84.60;;;;;;5039122;28;19921;-81
2022/10/31 06:48:22;;;;;;;;;;;11.20;84.60;;;;;;5045985;28;19968;-81
2022/10/31 06:50:48;;;;;;;;;;;11.20;84.60;;;;;;5052055;28;19920;-81
2022/10/31 06:53:14;;;;;;;;;;;11.20;84.70;;;;;;5037580;28;20294;-81
2022/10/31 06:55:39;;;;;;;;;;;11.20;84.60;;;;;;5051693;28;19924;-81
2022/10/31 06:58:05;;;;;;;;;;;11.20;84.60;;;;;;5034882;28;20405;-80
2022/10/31 07:00:30;;;;;;;;;;;11.20;84.60;;;;;;5046646;28;19920;-81
2022/10/31 07:02:59;;;;;;;;;;;11.20;84.60;;;;;;5038349;28;20418;-81
2022/10/31 07:05:25;;;;;;;;;;;11.20;84.60;;;;;;5040025;28;20267;-81
2022/10/31 07:07:54;;;;;;;;;;;11.20;84.60;;;;;;5051146;28;19926;-81
2022/10/31 07:10:19;;;;;;;;;;;11.20;84.60;;;;;;5048505;28;19913;-81
2022/10/31 07:12:44;;;;;;;;;;;11.30;84.60;;;;;;5054987;28;19969;-81
2022/10/31 07:15:10;;;;;;;;;;;11.30;84.60;;;;;;5039210;28;19928;-81
2022/10/31 07:17:35;;;;;;;;;;;11.30;84.60;;;;;;5036984;28;20459;-81
2022/10/31 07:20:01;;;;;;;;;;;11.30;84.60;;;;;;5042448;28;20028;-81
2022/10/31 07:22:33;;;;;;;;;;;11.30;84.60;;;;;;5036170;28;20422;-81
2022/10/31 07:24:59;;;;;;;;;;;11.30;84.60;;;;;;5022555;28;20436;-81
2022/10/31 07:27:24;;;;;;;;;;;11.30;84.60;;;;;;5040304;28;19924;-81
2022/10/31 07:29:49;;;;;;;;;;;11.30;84.60;;;;;;5038081;28;19924;-81
2022/10/31 07:32:15;;;;;;;;;;;11.30;84.60;;;;;;5038728;28;19920;-81
2022/10/31 07:34:40;;;;;;;;;;;11.30;84.60;;;;;;5022021;28;20413;-81
2022/10/31 07:37:06;;;;;;;;;;;11.30;84.70;;;;;;5025963;28;19921;-81
2022/10/31 07:39:32;;;;;;;;;;;11.40;84.70;;;;;;5037715;28;19913;-81
2022/10/31 07:42:00;;;;;;;;;;;11.40;84.70;;;;;;5051695;28;20008;-81
2022/10/31 07:44:25;;;;;;;;;;;11.40;84.70;;;;;;5056910;28;19940;-81
2022/10/31 07:46:51;;;;;;;;;;;11.40;84.70;;;;;;5049099;28;20334;-81
2022/10/31 07:49:16;;;;;;;;;;;11.40;84.60;;;;;;5038985;28;19923;-81
2022/10/31 07:51:42;;;;;;;;;;;11.40;84.60;;;;;;5056044;28;20363;-81
2022/10/31 07:54:07;;;;;;;;;;;11.50;84.60;;;;;;5040928;28;19916;-81
2022/10/31 07:56:33;;;;;;;;;;;11.50;84.60;;;;;;5043114;28;19919;-80
2022/10/31 07:58:58;;;;;;;;;;;11.50;84.60;;;;;;5042917;28;19923;-81
2022/10/31 08:01:24;;;;;;;;;;;11.50;84.60;;;;;;5058077;28;19938;-80
2022/10/31 08:03:49;;;;;;;;;;;11.50;84.50;;;;;;5038617;28;19925;-80
2022/10/31 08:06:14;;;;;;;;;;;11.60;84.60;;;;;;5054841;28;20378;-81
2022/10/31 08:08:40;;;;;;;;;;;11.60;84.60;;;;;;5039756;28;19923;-80
2022/10/31 08:11:05;;;;;;;;;;;11.60;84.60;;;;;;5055090;28;19966;-80
2022/10/31 08:13:36;;;;;;;;;;;11.60;84.60;;;;;;5041393;28;20306;-80
2022/10/31 08:16:04;;;;;;;;;;;11.60;84.50;;;;;;5039208;28;19971;-80
2022/10/31 08:18:29;;;;;;;;;;;11.70;84.60;;;;;;5055629;28;19921;-80
2022/10/31 08:20:55;;;;;;;;;;;11.70;84.60;;;;;;5026158;28;19974;-81
2022/10/31 08:23:20;;;;;;;;;;;11.70;84.50;;;;;;5048842;28;19916;-81
2022/10/31 08:25:47;;;;;;;;;;;11.70;84.50;;;;;;5037086;28;19936;-81
2022/10/31 08:28:12;;;;;;;;;;;11.80;84.60;;;;;;5039852;28;19916;-80
2022/10/31 08:30:38;;;;;;;;;;;11.80;84.50;;;;;;5051634;28;20437;-80
2022/10/31 08:33:16;;;;;;;;;;;11.80;84.50;;;;;;5050981;28;19983;-80
2022/10/31 08:35:42;;;;;;;;;;;11.90;84.50;;;;;;5035135;28;20048;-81
2022/10/31 08:38:08;;;;;;;;;;;11.90;84.50;;;;;;5036555;28;20581;-81
2022/10/31 08:40:35;;;;;;;;;;;11.90;84.40;;;;;;5051299;28;19969;-80
2022/10/31 08:43:01;;;;;;;;;;;11.90;84.40;;;;;;5053776;28;19999;-80
2022/10/31 08:45:26;;;;;;;;;;;12.00;84.40;;;;;;5051022;28;19923;-81
2022/10/31 08:47:52;;;;;;;;;;;12.00;84.40;;;;;;5059997;28;19916;-80
2022/10/31 08:50:18;;;;;;;;;;;12.10;84.40;;;;;;5043736;28;19917;-81
2022/10/31 08:52:43;;;;;;;;;;;12.10;84.40;;;;;;5045100;28;19961;-81
2022/10/31 08:55:08;;;;;;;;;;;12.10;84.30;;;;;;5044374;28;19913;-80
2022/10/31 08:57:34;;;;;;;;;;;12.10;84.30;;;;;;5058191;28;19917;-81
2022/10/31 09:00:00;;;;;;;;;;;12.10;84.30;;;;;;5047489;28;20370;-80
2022/10/31 09:02:25;;;;;;;;;;;12.20;84.30;;;;;;5055517;28;19924;-81
2022/10/31 09:04:51;;;;;;;;;;;12.20;84.30;;;;;;5059121;28;19921;-80
2022/10/31 09:07:19;;;;;;;;;;;12.20;85.10;;;;;;5042399;28;20285;-81
2022/10/31 09:09:44;;;;;;;;;;;12.20;84.20;;;;;;5040543;28;19955;-80
2022/10/31 09:12:10;;;;;;;;;;;12.20;84.20;;;;;;5056722;28;19931;-81
2022/10/31 09:14:35;;;;;;;;;;;12.20;84.30;;;;;;5061041;28;20424;-81
2022/10/31 09:17:01;;;;;;;;;;;12.20;84.20;;;;;;5031870;28;19966;-81
2022/10/31 09:19:26;;;;;;;;;;;12.30;84.30;;;;;;5060230;28;20390;-81
2022/10/31 09:21:52;;;;;;;;;;;12.30;84.20;;;;;;5025175;28;19920;-80
2022/10/31 09:24:18;;;;;;;;;;;12.40;84.20;;;;;;5059189;28;19925;-81
2022/10/31 09:26:43;;;;;;;;;;;12.40;84.20;;;;;;5048031;28;19923;-81
2022/10/31 09:29:09;;;;;;;;;;;12.40;84.20;;;;;;5043192;28;20606;-81
2022/10/31 09:31:35;;;;;;;;;;;12.50;84.20;;;;;;5041344;28;19920;-81
2022/10/31 09:34:00;;;;;;;;;;;12.50;84.10;;;;;;5055841;28;19966;-81
2022/10/31 09:36:26;;;;;;;;;;;12.50;84.10;;;;;;5044631;28;19928;-80
2022/10/31 09:38:51;;;;;;;;;;;12.60;84.10;;;;;;5043204;28;20000;-81
2022/10/31 09:41:19;;;;;;;;;;;12.60;84.10;;;;;;5051518;28;19917;-81
2022/10/31 09:44:00;;;;;;;;;;;12.60;84.10;;;;;;5040247;28;19920;-81
2022/10/31 09:46:45;;;;;;;;;;;12.60;84.00;;;;;;5053833;28;19952;-81
2022/10/31 09:49:17;;;;;;;;;;;12.70;84.00;;;;;;5039942;28;20012;-81
2022/10/31 09:51:45;;;;;;;;;;;12.70;84.00;;;;;;5056336;28;20460;-81
2022/10/31 09:54:28;;;;;;;;;;;12.70;84.00;;;;;;5042414;28;19924;-81
2022/10/31 09:56:55;;;;;;;;;;;12.80;84.00;;;;;;5061650;28;19923;-81
2022/10/31 09:59:46;;;;;;;;;;;12.80;84.00;;;;;;5042001;28;20311;-81
2022/10/31 10:02:18;;;;;;;;;;;12.80;83.90;;;;;;5053364;28;19940;-81
2022/10/31 10:04:55;;;;;;;;;;;12.90;83.90;;;;;;5059416;28;20055;-81
2022/10/31 10:07:32;;;;;;;;;;;12.90;83.90;;;;;;5027117;28;19966;-81
2022/10/31 10:09:58;;;;;;;;;;;12.90;83.90;;;;;;5056390;28;19931;-81
2022/10/31 10:12:30;;;;;;;;;;;13.00;83.90;;;;;;5056104;28;19920;-81
2022/10/31 10:15:13;;;;;;;;;;;13.00;83.90;;;;;;5059359;28;19924;-80
2022/10/31 10:17:45;;;;;;;;;;;13.00;83.80;;;;;;5057884;28;19924;-81
2022/10/31 10:20:14;;;;;;;;;;;13.00;83.80;;;;;;5051841;28;19913;-81
2022/10/31 10:22:45;;;;;;;;;;;13.10;83.80;;;;;;5057560;28;19916;-81
2022/10/31 10:25:11;;;;;;;;;;;13.10;83.80;;;;;;5040823;28;19995;-81
2022/10/31 10:27:45;;;;;;;;;;;13.10;83.70;;;;;;5055091;28;20015;-81
2022/10/31 10:30:12;;;;;;;;;;;13.20;83.70;;;;;;5053497;28;20024;-81
2022/10/31 10:32:45;;;;;;;;;;;13.20;83.70;;;;;;5041846;28;19913;-81
2022/10/31 10:35:14;;;;;;;;;;;13.20;83.70;;;;;;5040722;28;19939;-81
2022/10/31 10:37:40;;;;;;;;;;;13.20;83.60;;;;;;5054246;28;20394;-81
2022/10/31 10:40:26;;;;;;;;;;;13.30;83.70;;;;;;5041911;28;19947;-81
2022/10/31 10:43:23;;;;;;;;;;;13.30;83.70;;;;;;5055736;28;19976;-81
2022/10/31 10:48:33;;;;;;;;;;;13.30;83.60;;;;;;5046950;28;19927;-81
2022/10/31 10:50:58;;;;;;;;;;;13.40;83.60;;;;;;5059388;28;19917;-81
2022/10/31 10:54:02;;;;;;;;;;;13.40;83.60;;;;;;5041493;28;20424;-81
2022/10/31 10:56:46;;;;;;;;;;;13.50;83.60;;;;;;5007402;28;21206;-81
2022/10/31 10:59:13;;;;;;;;;;;13.50;83.50;;;;;;5029107;28;19959;-82
2022/10/31 11:01:40;;;;;;;;;;;13.50;83.50;;;;;;4998163;28;20017;-82
2022/10/31 11:04:09;;;;;;;;;;;13.60;83.60;;;;;;5058840;28;19924;-81
2022/10/31 11:06:35;;;;;;;;;;;13.70;83.60;;;;;;5038478;28;19920;-82
2022/10/31 11:09:08;;;;;;;;;;;13.70;83.50;;;;;;5049791;28;19936;-82
2022/10/31 11:11:33;;;;;;;;;;;13.80;83.50;;;;;;5054436;28;20443;-82
2022/10/31 11:14:13;;;;;;;;;;;13.80;84.20;;;;;;5038975;28;19932;-82
2022/10/31 11:16:40;;;;;;;;;;;13.90;83.40;;;;;;5053177;28;19952;-82
2022/10/31 11:19:16;;;;;;;;;;;13.90;83.30;;;;;;5036057;28;20585;-82
2022/10/31 11:21:41;;;;;;;;;;;14.00;83.30;;;;;;5051615;28;19927;-82
2022/10/31 11:24:10;;;;;;;;;;;14.00;83.20;;;;;;5038189;28;19912;-82
2022/10/31 11:26:39;;;;;;;;;;;14.00;83.20;;;;;;5035325;28;19913;-82
2022/10/31 11:29:05;;;;;;;;;;;14.10;83.20;;;;;;5053838;28;19969;-82
2022/10/31 11:31:31;;;;;;;;;;;14.20;83.20;;;;;;5059041;28;20051;-82
2022/10/31 11:34:00;;;;;;;;;;;14.20;83.10;;;;;;5028245;28;20003;-82
2022/10/31 11:36:26;;;;;;;;;;;14.30;83.10;;;;;;5057841;28;19913;-82
2022/10/31 11:38:52;;;;;;;;;;;14.30;83.10;;;;;;5042948;28;19982;-82
2022/10/31 11:41:18;;;;;;;;;;;14.30;83.00;;;;;;5055653;28;20389;-82
2022/10/31 11:43:50;;;;;;;;;;;14.40;83.00;;;;;;5043085;28;20406;-82
2022/10/31 11:46:18;;;;;;;;;;;14.40;82.90;;;;;;5021920;28;20618;-82
2022/10/31 11:48:46;;;;;;;;;;;14.40;82.90;;;;;;5054521;28;19919;-82
2022/10/31 11:51:12;;;;;;;;;;;14.50;82.90;;;;;;5039066;28;19928;-82
2022/10/31 11:53:37;;;;;;;;;;;14.50;83.00;;;;;;5057053;28;19916;-82
2022/10/31 11:56:04;;;;;;;;;;;14.50;82.90;;;;;;5045328;28;20020;-82
2022/10/31 11:58:30;;;;;;;;;;;14.50;82.90;;;;;;5044221;28;20291;-82
2022/10/31 12:00:56;;;;;;;;;;;14.50;82.80;;;;;;5036057;28;20597;-82
2022/10/31 12:03:21;;;;;;;;;;;14.60;82.90;;;;;;5036281;28;19932;-82
2022/10/31 12:05:47;;;;;;;;;;;14.60;82.80;;;;;;5049935;28;20062;-82
2022/10/31 12:08:12;;;;;;;;;;;14.60;82.80;;;;;;5037392;28;19920;-82
2022/10/31 12:10:58;;;;;;;;;;;14.70;82.80;;;;;;5043928;28;19965;-82
2022/10/31 12:13:26;;;;;;;;;;;14.70;82.80;;;;;;5040840;28;20051;-82
2022/10/31 12:15:54;;;;;;;;;;;14.70;82.70;;;;;;5055558;28;19924;-82
2022/10/31 12:18:23;;;;;;;;;;;14.70;82.70;;;;;;5037883;28;19996;-82
2022/10/31 12:20:57;;;;;;;;;;;14.80;82.70;;;;;;5051562;28;19952;-82
2022/10/31 12:23:29;;;;;;;;;;;14.80;82.70;;;;;;5034348;28;19952;-82
2022/10/31 12:26:06;;;;;;;;;;;14.80;82.70;;;;;;5049886;28;19921;-82
2022/10/31 12:28:31;;;;;;;;;;;14.90;82.70;;;;;;5036309;28;20337;-82
2022/10/31 12:31:03;;;;;;;;;;;14.90;82.60;;;;;;5033010;28;19917;-82
2022/10/31 12:33:47;;;;;;;;;;;14.90;82.70;;;;;;5051376;28;19924;-82
2022/10/31 12:36:20;;;;;;;;;;;14.90;82.60;;;;;;5049850;28;20004;-82
2022/10/31 12:38:55;;;;;;;;;;;15.00;82.60;;;;;;5054533;28;19971;-82
2022/10/31 12:41:32;;;;;;;;;;;15.00;82.60;;;;;;5053449;28;20378;-82
2022/10/31 12:44:05;;;;;;;;;;;15.00;82.50;;;;;;5036804;28;19925;-81
2022/10/31 12:46:30;;;;;;;;;;;15.00;82.50;;;;;;5039177;28;20486;-82
2022/10/31 12:49:08;;;;;;;;;;;15.10;82.50;;;;;;5054780;28;19921;-82
2022/10/31 12:51:46;;;;;;;;;;;15.10;82.50;;;;;;5013039;28;19967;-82
2022/10/31 12:54:16;;;;;;;;;;;15.10;82.50;;;;;;5051668;28;19916;-82
2022/10/31 12:57:00;;;;;;;;;;;15.10;82.50;;;;;;5035176;28;20041;-82
2022/10/31 12:59:33;;;;;;;;;;;15.10;82.50;;;;;;5055441;28;19925;-81
2022/10/31 13:02:22;;;;;;;;;;;15.20;82.50;;;;;;5041363;28;19921;-81
2022/10/31 13:04:50;;;;;;;;;;;15.20;82.50;;;;;;5039502;28;19920;-82
2022/10/31 13:07:21;;;;;;;;;;;15.20;82.40;;;;;;5030857;28;19923;-82
2022/10/31 13:09:49;;;;;;;;;;;15.30;82.50;;;;;;5039298;28;20334;-82
2022/10/31 13:12:16;;;;;;;;;;;15.30;82.30;;;;;;5057002;28;19945;-82
2022/10/31 13:14:51;;;;;;;;;;;15.40;82.40;;;;;;5060419;28;19913;-82
2022/10/31 13:17:26;;;;;;;;;;;15.40;82.30;;;;;;5027429;28;19999;-82
2022/10/31 13:19:52;;;;;;;;;;;15.50;82.40;;;;;;5058374;28;19925;-82
2022/10/31 13:22:20;;;;;;;;;;;15.50;82.30;;;;;;5057537;28;19917;-82
2022/10/31 13:24:55;;;;;;;;;;;15.50;82.30;;;;;;5060130;28;19928;-81
2022/10/31 13:27:21;;;;;;;;;;;15.50;82.20;;;;;;5039790;28;20635;-82
2022/10/31 13:30:06;;;;;;;;;;;15.50;82.20;;;;;;5056219;28;19913;-82
2022/10/31 13:32:41;;;;;;;;;;;15.60;82.30;;;;;;5025574;28;19916;-82
2022/10/31 13:35:08;;;;;;;;;;;15.60;82.20;;;;;;5047730;28;19916;-82
2022/10/31 13:37:34;;;;;;;;;;;15.70;82.20;;;;;;5046035;28;20383;-82
2022/10/31 13:40:19;;;;;;;;;;;15.70;82.20;;;;;;5065159;28;19919;-82
2022/10/31 13:42:49;;;;;;;;;;;15.70;82.10;;;;;;5039725;28;19920;-82
2022/10/31 13:45:15;;;;;;;;;;;15.70;82.10;;;;;;5059581;28;20404;-82
2022/10/31 13:47:41;;;;;;;;;;;15.70;82.10;;;;;;5040848;28;19928;-82
2022/10/31 13:50:16;;;;;;;;;;;15.80;82.10;;;;;;5042737;28;19917;-82
2022/10/31 13:52:41;;;;;;;;;;;15.80;82.10;;;;;;5057839;28;19917;-82
2022/10/31 13:55:07;;;;;;;;;;;15.80;82.10;;;;;;5042599;28;19924;-82
2022/10/31 13:57:38;;;;;;;;;;;15.90;82.10;;;;;;5047557;28;20007;-82
2022/10/31 14:00:19;;;;;;;;;;;15.90;82.10;;;;;;5035883;28;19917;-82
2022/10/31 14:02:46;;;;;;;;;;;15.90;82.00;;;;;;5060335;28;19944;-82
2022/10/31 14:05:31;;;;;;;;;;;15.90;82.00;;;;;;5040204;28;19920;-82
2022/10/31 14:07:58;;;;;;;;;;;15.90;82.00;;;;;;5052522;28;20310;-82
2022/10/31 14:10:26;;;;;;;;;;;15.90;82.00;;;;;;5038497;28;19917;-82
2022/10/31 14:12:52;;;;;;;;;;;16.00;82.00;;;;;;5024881;28;19976;-82
2022/10/31 14:15:18;;;;;;;;;;;16.00;82.00;;;;;;5050954;28;19956;-82
2022/10/31 14:17:50;;;;;;;;;;;15.90;82.00;;;;;;5041501;28;19921;-82
2022/10/31 14:20:15;;;;;;;;;;;15.90;82.00;;;;;;5057493;28;19920;-82
2022/10/31 14:22:41;;;;;;;;;;;16.00;82.00;;;;;;5055764;28;19942;-82
2022/10/31 14:25:25;;;;;;;;;;;16.00;82.00;;;;;;5022957;28;19974;-82